sensor_id;sensor_type;location;lat;lon;timestamp;pressure;altitude;pressure_sealevel;temperature;humidity
35676;BME280;21790;42.668;23.298;2022-08-19T00:01:37;94455.63;;;30.54;35.89
35676;BME280;21790;42.668;23.298;2022-08-19T00:04:05;94449.59;;;30.41;36.16
35676;BME280;21790;42.668;23.298;2022-08-19T00:06:33;94434.88;;;30.34;36.09
35676;BME280;21790;42.668;23.298;2022-08-19T00:09:00;94447.91;;;30.28;36.18
35676;BME280;21790;42.668;23.298;2022-08-19T00:11:26;94439.06;;;30.14;36.55
35676;BME280;21790;42.668;23.298;2022-08-19T00:13:53;94447.59;;;30.05;36.71
35676;BME280;21790;42.668;23.298;2022-08-19T00:16:19;94451.34;;;30.17;36.60
35676;BME280;21790;42.668;23.298;2022-08-19T00:18:46;94439.66;;;30.22;36.32
35676;BME280;21790;42.668;23.298;2022-08-19T00:21:13;94460.53;;;30.34;36.48
35676;BME280;21790;42.668;23.298;2022-08-19T00:23:39;94466.69;;;30.21;36.62
35676;BME280;21790;42.668;23.298;2022-08-19T00:26:09;94465.78;;;30.19;36.63
35676;BME280;21790;42.668;23.298;2022-08-19T00:28:34;94459.59;;;30.13;36.48
35676;BME280;21790;42.668;23.298;2022-08-19T00:31:03;94466.69;;;30.21;36.34
35676;BME280;21790;42.668;23.298;2022-08-19T00:33:30;94456.47;;;30.18;36.69
35676;BME280;21790;42.668;23.298;2022-08-19T00:36:03;94456.47;;;30.18;36.85
35676;BME280;21790;42.668;23.298;2022-08-19T00:38:29;94454.22;;;30.17;36.86
35676;BME280;21790;42.668;23.298;2022-08-19T00:40:56;94454.50;;;30.11;37.07
35676;BME280;21790;42.668;23.298;2022-08-19T00:43:25;94443.88;;;30.21;37.26
35676;BME280;21790;42.668;23.298;2022-08-19T00:45:51;94446.69;;;30.12;37.15
35676;BME280;21790;42.668;23.298;2022-08-19T00:48:20;94455.25;;;30.02;37.15
35676;BME280;21790;42.668;23.298;2022-08-19T00:50:49;94448.50;;;30.07;36.63
35676;BME280;21790;42.668;23.298;2022-08-19T00:53:22;94451.06;;;30.03;36.95
35676;BME280;21790;42.668;23.298;2022-08-19T00:55:51;94450.25;;;29.83;37.25
35676;BME280;21790;42.668;23.298;2022-08-19T00:58:25;94446.34;;;29.88;37.46
35676;BME280;21790;42.668;23.298;2022-08-19T01:00:54;94448.44;;;29.88;37.41
35676;BME280;21790;42.668;23.298;2022-08-19T01:03:22;94445.88;;;29.73;37.49
35676;BME280;21790;42.668;23.298;2022-08-19T01:05:49;94450.53;;;29.87;36.75
35676;BME280;21790;42.668;23.298;2022-08-19T01:08:17;94451.00;;;29.84;36.81
35676;BME280;21790;42.668;23.298;2022-08-19T01:10:48;94447.38;;;29.83;36.64
35676;BME280;21790;42.668;23.298;2022-08-19T01:13:17;94440.09;;;29.53;37.12
35676;BME280;21790;42.668;23.298;2022-08-19T01:15:50;94451.56;;;29.73;36.99
35676;BME280;21790;42.668;23.298;2022-08-19T01:18:19;94440.69;;;29.52;37.67
35676;BME280;21790;42.668;23.298;2022-08-19T01:20:46;94447.88;;;29.53;37.28
35676;BME280;21790;42.668;23.298;2022-08-19T01:23:12;94441.69;;;29.37;37.29
35676;BME280;21790;42.668;23.298;2022-08-19T01:25:45;94433.75;;;29.19;37.86
35676;BME280;21790;42.668;23.298;2022-08-19T01:28:25;94437.69;;;29.50;37.47
35676;BME280;21790;42.668;23.298;2022-08-19T01:30:53;94444.69;;;29.39;37.48
35676;BME280;21790;42.668;23.298;2022-08-19T01:33:21;94446.78;;;29.39;37.38
35676;BME280;21790;42.668;23.298;2022-08-19T01:35:47;94448.72;;;29.36;37.31
35676;BME280;21790;42.668;23.298;2022-08-19T01:38:24;94448.47;;;29.51;36.68
35676;BME280;21790;42.668;23.298;2022-08-19T01:40:51;94452.25;;;29.54;36.46
35676;BME280;21790;42.668;23.298;2022-08-19T01:43:17;94451.16;;;29.40;36.71
35676;BME280;21790;42.668;23.298;2022-08-19T01:45:44;94452.41;;;29.56;36.92
35676;BME280;21790;42.668;23.298;2022-08-19T01:48:10;94445.63;;;29.51;37.17
35676;BME280;21790;42.668;23.298;2022-08-19T01:50:36;94443.09;;;29.56;37.01
35676;BME280;21790;42.668;23.298;2022-08-19T01:53:04;94454.81;;;29.60;37.03
35676;BME280;21790;42.668;23.298;2022-08-19T01:55:30;94446.22;;;29.50;37.02
35676;BME280;21790;42.668;23.298;2022-08-19T01:57:58;94447.88;;;29.53;37.09
35676;BME280;21790;42.668;23.298;2022-08-19T02:00:28;94444.53;;;29.37;37.41
35676;BME280;21790;42.668;23.298;2022-08-19T02:02:54;94455.47;;;29.41;37.28
35676;BME280;21790;42.668;23.298;2022-08-19T02:05:20;94455.75;;;29.35;37.46
35676;BME280;21790;42.668;23.298;2022-08-19T02:07:46;94451.16;;;29.40;37.68
35676;BME280;21790;42.668;23.298;2022-08-19T02:10:17;94453.28;;;29.49;37.64
35676;BME280;21790;42.668;23.298;2022-08-19T02:12:44;94451.72;;;29.38;37.58
35676;BME280;21790;42.668;23.298;2022-08-19T02:15:10;94452.50;;;29.48;37.54
35676;BME280;21790;42.668;23.298;2022-08-19T02:17:36;94452.22;;;29.44;37.52
35676;BME280;21790;42.668;23.298;2022-08-19T02:20:02;94455.53;;;29.50;37.44
35676;BME280;21790;42.668;23.298;2022-08-19T02:22:28;94452.50;;;29.48;37.89
35676;BME280;21790;42.668;23.298;2022-08-19T02:24:54;94449.66;;;29.48;37.74
35676;BME280;21790;42.668;23.298;2022-08-19T02:27:22;94454.03;;;29.49;37.89
35676;BME280;21790;42.668;23.298;2022-08-19T02:29:48;94456.66;;;29.38;38.18
35676;BME280;21790;42.668;23.298;2022-08-19T02:32:15;94444.16;;;29.24;38.22
35676;BME280;21790;42.668;23.298;2022-08-19T02:34:42;94453.09;;;29.20;38.36
35676;BME280;21790;42.668;23.298;2022-08-19T02:37:08;94449.72;;;29.04;38.42
35676;BME280;21790;42.668;23.298;2022-08-19T02:39:56;94443.56;;;28.98;38.43
35676;BME280;21790;42.668;23.298;2022-08-19T02:42:24;94450.31;;;29.03;38.52
35676;BME280;21790;42.668;23.298;2022-08-19T02:44:50;94458.47;;;28.89;38.43
35676;BME280;21790;42.668;23.298;2022-08-19T02:47:17;94452.25;;;29.00;38.67
35676;BME280;21790;42.668;23.298;2022-08-19T02:49:45;94452.56;;;29.04;38.21
35676;BME280;21790;42.668;23.298;2022-08-19T02:52:11;94450.66;;;29.07;38.06
35676;BME280;21790;42.668;23.298;2022-08-19T02:54:37;94454.25;;;29.07;38.20
35676;BME280;21790;42.668;23.298;2022-08-19T02:57:04;94463.50;;;29.08;38.21
35676;BME280;21790;42.668;23.298;2022-08-19T02:59:30;94462.66;;;29.15;37.74
35676;BME280;21790;42.668;23.298;2022-08-19T03:01:57;94461.88;;;29.05;38.02
35676;BME280;21790;42.668;23.298;2022-08-19T03:04:22;94465.03;;;29.09;37.53
35676;BME280;21790;42.668;23.298;2022-08-19T03:06:48;94466.75;;;28.95;37.91
35676;BME280;21790;42.668;23.298;2022-08-19T03:09:14;94461.31;;;28.89;38.07
35676;BME280;21790;42.668;23.298;2022-08-19T03:11:40;94462.22;;;28.92;38.22
35676;BME280;21790;42.668;23.298;2022-08-19T03:14:07;94456.28;;;28.97;38.09
35676;BME280;21790;42.668;23.298;2022-08-19T03:16:40;94457.69;;;29.06;38.04
35676;BME280;21790;42.668;23.298;2022-08-19T03:19:06;94457.47;;;28.94;38.26
35676;BME280;21790;42.668;23.298;2022-08-19T03:21:33;94447.84;;;28.90;38.18
35676;BME280;21790;42.668;23.298;2022-08-19T03:24:03;94448.75;;;28.92;38.26
35676;BME280;21790;42.668;23.298;2022-08-19T03:26:31;94456.22;;;28.88;38.37
35676;BME280;21790;42.668;23.298;2022-08-19T03:29:02;94454.38;;;28.83;38.61
35676;BME280;21790;42.668;23.298;2022-08-19T03:31:28;94460.06;;;28.83;38.68
35676;BME280;21790;42.668;23.298;2022-08-19T03:33:54;94456.72;;;28.94;38.44
35676;BME280;21790;42.668;23.298;2022-08-19T03:36:22;94469.75;;;28.97;38.57
35676;BME280;21790;42.668;23.298;2022-08-19T03:38:50;94458.78;;;28.93;38.61
35676;BME280;21790;42.668;23.298;2022-08-19T03:41:20;94455.19;;;28.93;38.83
35676;BME280;21790;42.668;23.298;2022-08-19T03:43:46;94464.13;;;28.80;39.00
35676;BME280;21790;42.668;23.298;2022-08-19T03:46:15;94476.13;;;28.88;38.70
35676;BME280;21790;42.668;23.298;2022-08-19T03:48:42;94474.88;;;28.81;38.72
35676;BME280;21790;42.668;23.298;2022-08-19T03:51:22;94480.03;;;28.92;38.68
35676;BME280;21790;42.668;23.298;2022-08-19T03:53:48;94482.56;;;28.88;38.79
35676;BME280;21790;42.668;23.298;2022-08-19T03:56:15;94486.09;;;28.96;38.85
35676;BME280;21790;42.668;23.298;2022-08-19T03:58:41;94486.00;;;28.87;38.85
35676;BME280;21790;42.668;23.298;2022-08-19T04:01:09;94486.16;;;28.89;39.23
35676;BME280;21790;42.668;23.298;2022-08-19T04:03:35;94488.25;;;28.88;39.21
35676;BME280;21790;42.668;23.298;2022-08-19T04:06:18;94493.50;;;28.92;38.88
35676;BME280;21790;42.668;23.298;2022-08-19T04:08:45;94495.13;;;28.68;38.93
35676;BME280;21790;42.668;23.298;2022-08-19T04:11:15;94495.28;;;28.70;38.89
35676;BME280;21790;42.668;23.298;2022-08-19T04:13:41;94497.03;;;28.65;39.11
35676;BME280;21790;42.668;23.298;2022-08-19T04:16:10;94495.28;;;28.70;39.22
35676;BME280;21790;42.668;23.298;2022-08-19T04:18:37;94498.06;;;28.60;39.20
35676;BME280;21790;42.668;23.298;2022-08-19T04:21:04;94495.06;;;28.58;39.37
35676;BME280;21790;42.668;23.298;2022-08-19T04:23:30;94498.81;;;28.61;39.19
35676;BME280;21790;42.668;23.298;2022-08-19T04:25:59;94509.41;;;28.60;39.25
35676;BME280;21790;42.668;23.298;2022-08-19T04:28:25;94499.72;;;28.63;38.95
35676;BME280;21790;42.668;23.298;2022-08-19T04:30:53;94501.56;;;28.68;39.11
35676;BME280;21790;42.668;23.298;2022-08-19T04:33:21;94499.00;;;28.80;38.93
35676;BME280;21790;42.668;23.298;2022-08-19T04:35:48;94501.72;;;28.88;38.67
35676;BME280;21790;42.668;23.298;2022-08-19T04:38:16;94495.50;;;28.99;38.46
35676;BME280;21790;42.668;23.298;2022-08-19T04:40:45;94499.88;;;29.00;38.36
35676;BME280;21790;42.668;23.298;2022-08-19T04:43:29;94498.41;;;29.08;38.19
35676;BME280;21790;42.668;23.298;2022-08-19T04:45:55;94498.94;;;29.24;37.85
35676;BME280;21790;42.668;23.298;2022-08-19T04:48:21;94494.13;;;29.34;37.59
35676;BME280;21790;42.668;23.298;2022-08-19T04:50:53;94500.59;;;29.44;37.73
35676;BME280;21790;42.668;23.298;2022-08-19T04:53:32;94504.56;;;29.59;37.70
35676;BME280;21790;42.668;23.298;2022-08-19T04:56:03;94509.50;;;29.58;37.88
35676;BME280;21790;42.668;23.298;2022-08-19T04:58:29;94500.88;;;29.75;37.69
35676;BME280;21790;42.668;23.298;2022-08-19T05:00:57;94513.09;;;29.95;37.43
35676;BME280;21790;42.668;23.298;2022-08-19T05:03:39;94515.25;;;30.04;37.10
35676;BME280;21790;42.668;23.298;2022-08-19T05:06:11;94507.19;;;30.20;37.39
35676;BME280;21790;42.668;23.298;2022-08-19T05:08:39;94514.38;;;30.21;37.30
35676;BME280;21790;42.668;23.298;2022-08-19T05:11:29;94511.13;;;30.44;37.35
35676;BME280;21790;42.668;23.298;2022-08-19T05:13:56;94518.59;;;30.39;37.31
35676;BME280;21790;42.668;23.298;2022-08-19T05:16:22;94521.50;;;30.49;36.64
35676;BME280;21790;42.668;23.298;2022-08-19T05:18:49;94514.44;;;30.50;36.67
35676;BME280;21790;42.668;23.298;2022-08-19T05:21:35;94513.56;;;30.57;36.62
35676;BME280;21790;42.668;23.298;2022-08-19T05:24:20;94518.78;;;30.60;36.33
35676;BME280;21790;42.668;23.298;2022-08-19T05:26:50;94511.59;;;30.79;36.26
35676;BME280;21790;42.668;23.298;2022-08-19T05:29:17;94513.88;;;30.80;35.73
35676;BME280;21790;42.668;23.298;2022-08-19T05:31:44;94508.75;;;30.88;35.68
35676;BME280;21790;42.668;23.298;2022-08-19T05:34:10;94515.22;;;30.98;35.57
35676;BME280;21790;42.668;23.298;2022-08-19T05:36:40;94524.53;;;31.08;35.57
35676;BME280;21790;42.668;23.298;2022-08-19T05:39:07;94518.81;;;31.18;35.24
35676;BME280;21790;42.668;23.298;2022-08-19T05:41:33;94513.88;;;31.09;35.91
35676;BME280;21790;42.668;23.298;2022-08-19T05:44:04;94527.06;;;31.24;35.98
35676;BME280;21790;42.668;23.298;2022-08-19T05:46:35;94515.66;;;31.24;35.04
35676;BME280;21790;42.668;23.298;2022-08-19T05:49:03;94520.28;;;31.29;34.97
35676;BME280;21790;42.668;23.298;2022-08-19T05:51:29;94512.16;;;31.35;35.41
35676;BME280;21790;42.668;23.298;2022-08-19T05:53:55;94518.44;;;31.43;35.35
35676;BME280;21790;42.668;23.298;2022-08-19T05:56:20;94516.94;;;31.51;34.40
35676;BME280;21790;42.668;23.298;2022-08-19T05:58:46;94515.56;;;31.52;34.43
35676;BME280;21790;42.668;23.298;2022-08-19T06:01:16;94516.31;;;31.63;34.50
35676;BME280;21790;42.668;23.298;2022-08-19T06:03:45;94515.97;;;31.78;34.35
35676;BME280;21790;42.668;23.298;2022-08-19T06:06:12;94517.63;;;31.71;34.60
35676;BME280;21790;42.668;23.298;2022-08-19T06:08:45;94516.25;;;31.82;34.17
35676;BME280;21790;42.668;23.298;2022-08-19T06:13:40;94518.50;;;31.83;33.51
35676;BME280;21790;42.668;23.298;2022-08-19T06:16:06;94519.94;;;31.94;33.88
35676;BME280;21790;42.668;23.298;2022-08-19T06:18:31;94516.81;;;31.90;33.31
35676;BME280;21790;42.668;23.298;2022-08-19T06:20:58;94529.28;;;31.94;33.11
35676;BME280;21790;42.668;23.298;2022-08-19T06:23:24;94522.16;;;32.05;32.90
35676;BME280;21790;42.668;23.298;2022-08-19T06:25:50;94516.28;;;32.13;32.94
35676;BME280;21790;42.668;23.298;2022-08-19T06:28:16;94519.09;;;32.22;33.10
35676;BME280;21790;42.668;23.298;2022-08-19T06:30:41;94522.03;;;32.34;32.88
35676;BME280;21790;42.668;23.298;2022-08-19T06:33:08;94521.47;;;32.47;32.47
35676;BME280;21790;42.668;23.298;2022-08-19T06:35:39;94525.44;;;32.63;32.46
35676;BME280;21790;42.668;23.298;2022-08-19T06:38:04;94526.25;;;32.54;32.61
35676;BME280;21790;42.668;23.298;2022-08-19T06:40:30;94525.44;;;32.63;32.48
35676;BME280;21790;42.668;23.298;2022-08-19T06:42:56;94527.63;;;32.74;32.36
35676;BME280;21790;42.668;23.298;2022-08-19T06:45:24;94523.97;;;32.84;32.40
35676;BME280;21790;42.668;23.298;2022-08-19T06:47:50;94524.34;;;32.90;32.19
35676;BME280;21790;42.668;23.298;2022-08-19T06:50:19;94526.13;;;32.95;32.45
35676;BME280;21790;42.668;23.298;2022-08-19T06:52:44;94530.13;;;33.01;32.42
35676;BME280;21790;42.668;23.298;2022-08-19T06:55:11;94522.81;;;33.10;32.25
35676;BME280;21790;42.668;23.298;2022-08-19T06:57:36;94528.94;;;33.16;32.27
35676;BME280;21790;42.668;23.298;2022-08-19T07:00:05;94524.66;;;33.27;31.14
35676;BME280;21790;42.668;23.298;2022-08-19T07:02:36;94527.16;;;33.32;31.29
35676;BME280;21790;42.668;23.298;2022-08-19T07:05:03;94527.81;;;33.42;31.17
35676;BME280;21790;42.668;23.298;2022-08-19T07:07:29;94525.19;;;33.46;31.28
35676;BME280;21790;42.668;23.298;2022-08-19T07:09:57;94528.44;;;33.52;31.83
35676;BME280;21790;42.668;23.298;2022-08-19T07:12:22;94531.44;;;33.43;31.38
35676;BME280;21790;42.668;23.298;2022-08-19T07:14:48;94529.47;;;33.57;31.73
35676;BME280;21790;42.668;23.298;2022-08-19T07:17:14;94524.16;;;33.75;31.33
35676;BME280;21790;42.668;23.298;2022-08-19T07:19:40;94536.63;;;33.79;31.58
35676;BME280;21790;42.668;23.298;2022-08-19T07:22:08;94537.75;;;33.86;31.25
35676;BME280;21790;42.668;23.298;2022-08-19T07:24:35;94538.25;;;33.94;30.92
35676;BME280;21790;42.668;23.298;2022-08-19T07:27:05;94540.50;;;34.07;30.94
35676;BME280;21790;42.668;23.298;2022-08-19T07:29:32;94534.53;;;34.15;30.63
35676;BME280;21790;42.668;23.298;2022-08-19T07:32:00;94536.91;;;34.18;30.55
35676;BME280;21790;42.668;23.298;2022-08-19T07:34:27;94535.81;;;34.23;30.66
35676;BME280;21790;42.668;23.298;2022-08-19T07:36:54;94530.81;;;34.24;31.25
35676;BME280;21790;42.668;23.298;2022-08-19T07:39:30;94534.06;;;34.41;30.78
35676;BME280;21790;42.668;23.298;2022-08-19T07:41:58;94526.81;;;34.40;31.38
35676;BME280;21790;42.668;23.298;2022-08-19T07:44:24;94527.28;;;34.49;31.16
35676;BME280;21790;42.668;23.298;2022-08-19T07:46:52;94536.75;;;34.63;30.26
35676;BME280;21790;42.668;23.298;2022-08-19T07:49:19;94525.38;;;34.65;29.93
35676;BME280;21790;42.668;23.298;2022-08-19T07:51:53;94526.72;;;34.87;29.96
35676;BME280;21790;42.668;23.298;2022-08-19T07:54:20;94541.22;;;34.89;30.09
35676;BME280;21790;42.668;23.298;2022-08-19T07:56:46;94527.59;;;34.90;29.97
35676;BME280;21790;42.668;23.298;2022-08-19T07:59:12;94529.16;;;35.04;29.14
35676;BME280;21790;42.668;23.298;2022-08-19T08:01:38;94529.16;;;35.04;29.17
35676;BME280;21790;42.668;23.298;2022-08-19T08:04:06;94528.88;;;35.23;29.04
35676;BME280;21790;42.668;23.298;2022-08-19T08:06:50;94535.59;;;35.28;28.61
35676;BME280;21790;42.668;23.298;2022-08-19T08:09:36;94517.94;;;35.34;29.07
35676;BME280;21790;42.668;23.298;2022-08-19T08:12:10;94525.03;;;35.44;28.59
35676;BME280;21790;42.668;23.298;2022-08-19T08:14:46;94519.50;;;35.48;28.73
35676;BME280;21790;42.668;23.298;2022-08-19T08:17:17;94528.00;;;35.46;28.44
35676;BME280;21790;42.668;23.298;2022-08-19T08:19:45;94519.88;;;35.68;28.14
35676;BME280;21790;42.668;23.298;2022-08-19T08:22:11;94519.19;;;35.31;28.54
35676;BME280;21790;42.668;23.298;2022-08-19T08:25:19;94512.81;;;35.83;28.10
35676;BME280;21790;42.668;23.298;2022-08-19T08:27:45;94509.81;;;35.81;27.93
35676;BME280;21790;42.668;23.298;2022-08-19T08:30:17;94505.03;;;35.85;27.81
35676;BME280;21790;42.668;23.298;2022-08-19T08:32:43;94512.28;;;35.86;27.78
35676;BME280;21790;42.668;23.298;2022-08-19T08:35:13;94510.19;;;36.00;27.34
35676;BME280;21790;42.668;23.298;2022-08-19T08:37:39;94506.97;;;36.08;27.36
35676;BME280;21790;42.668;23.298;2022-08-19T08:40:09;94505.53;;;36.21;26.58
35676;BME280;21790;42.668;23.298;2022-08-19T08:42:43;94499.78;;;36.21;26.77
35676;BME280;21790;42.668;23.298;2022-08-19T08:45:16;94502.22;;;36.40;26.30
35676;BME280;21790;42.668;23.298;2022-08-19T08:47:45;94497.53;;;36.46;26.12
35676;BME280;21790;42.668;23.298;2022-08-19T08:50:19;94496.13;;;36.61;25.16
35676;BME280;21790;42.668;23.298;2022-08-19T08:52:47;94500.84;;;36.68;24.32
35676;BME280;21790;42.668;23.298;2022-08-19T08:55:17;94490.19;;;36.71;25.27
35676;BME280;21790;42.668;23.298;2022-08-19T09:00:41;94488.06;;;37.01;25.44
35676;BME280;21790;42.668;23.298;2022-08-19T09:03:22;94485.97;;;36.87;25.23
35676;BME280;21790;42.668;23.298;2022-08-19T09:06:11;94485.94;;;37.01;25.35
35676;BME280;21790;42.668;23.298;2022-08-19T09:08:54;94475.84;;;36.86;24.03
35676;BME280;21790;42.668;23.298;2022-08-19T09:14:39;94477.28;;;37.15;23.42
35676;BME280;21790;42.668;23.298;2022-08-19T09:17:09;94484.81;;;37.22;23.96
35676;BME280;21790;42.668;23.298;2022-08-19T09:19:50;94478.56;;;37.41;23.94
35676;BME280;21790;42.668;23.298;2022-08-19T09:22:16;94474.19;;;37.40;24.30
35676;BME280;21790;42.668;23.298;2022-08-19T09:24:41;94467.31;;;37.47;23.78
35676;BME280;21790;42.668;23.298;2022-08-19T09:27:07;94470.09;;;37.45;23.13
35676;BME280;21790;42.668;23.298;2022-08-19T09:29:32;94454.19;;;37.44;23.23
35676;BME280;21790;42.668;23.298;2022-08-19T09:31:58;94472.53;;;37.51;23.26
35676;BME280;21790;42.668;23.298;2022-08-19T09:34:24;94467.06;;;37.57;23.48
35676;BME280;21790;42.668;23.298;2022-08-19T09:36:50;94459.53;;;37.65;22.93
35676;BME280;21790;42.668;23.298;2022-08-19T09:39:18;94455.91;;;37.81;22.30
35676;BME280;21790;42.668;23.298;2022-08-19T09:41:43;94445.88;;;37.82;22.45
35676;BME280;21790;42.668;23.298;2022-08-19T09:44:10;94456.22;;;38.02;22.58
35676;BME280;21790;42.668;23.298;2022-08-19T09:46:37;94456.50;;;38.08;22.36
35676;BME280;21790;42.668;23.298;2022-08-19T09:49:02;94451.28;;;38.05;21.90
35676;BME280;21790;42.668;23.298;2022-08-19T09:51:30;94460.13;;;38.09;21.66
35676;BME280;21790;42.668;23.298;2022-08-19T09:54:00;94453.22;;;38.16;21.60
35676;BME280;21790;42.668;23.298;2022-08-19T10:09:53;94429.72;;;38.39;20.43
35676;BME280;21790;42.668;23.298;2022-08-19T10:12:19;94430.47;;;38.40;20.62
35676;BME280;21790;42.668;23.298;2022-08-19T10:14:44;94429.19;;;38.27;20.13
35676;BME280;21790;42.668;23.298;2022-08-19T10:17:11;94428.59;;;38.13;20.39
35676;BME280;21790;42.668;23.298;2022-08-19T10:19:37;94424.09;;;38.10;20.14
35676;BME280;21790;42.668;23.298;2022-08-19T10:22:06;94422.53;;;38.07;20.37
35676;BME280;21790;42.668;23.298;2022-08-19T10:24:33;94428.31;;;38.07;20.53
35676;BME280;21790;42.668;23.298;2022-08-19T10:27:01;94424.94;;;38.13;20.69
35676;BME280;21790;42.668;23.298;2022-08-19T10:29:31;94417.97;;;38.02;20.44
35676;BME280;21790;42.668;23.298;2022-08-19T10:31:58;94415.81;;;38.02;20.54
35676;BME280;21790;42.668;23.298;2022-08-19T10:34:25;94413.41;;;37.97;20.50
35676;BME280;21790;42.668;23.298;2022-08-19T10:36:50;94417.69;;;37.96;20.68
35676;BME280;21790;42.668;23.298;2022-08-19T10:39:16;94414.97;;;38.00;20.08
35676;BME280;21790;42.668;23.298;2022-08-19T10:41:42;94411.91;;;37.96;20.10
35676;BME280;21790;42.668;23.298;2022-08-19T10:44:11;94407.63;;;37.97;20.16
35676;BME280;21790;42.668;23.298;2022-08-19T10:46:39;94418.22;;;37.92;20.02
35676;BME280;21790;42.668;23.298;2022-08-19T10:49:07;94408.09;;;37.76;20.12
35676;BME280;21790;42.668;23.298;2022-08-19T10:51:33;94404.66;;;37.95;20.18
35676;BME280;21790;42.668;23.298;2022-08-19T10:54:18;94401.94;;;37.99;20.37
35676;BME280;21790;42.668;23.298;2022-08-19T10:56:44;94404.81;;;37.99;20.08
35676;BME280;21790;42.668;23.298;2022-08-19T10:59:24;94396.84;;;38.13;20.95
35676;BME280;21790;42.668;23.298;2022-08-19T11:01:53;94404.06;;;37.98;21.08
35676;BME280;21790;42.668;23.298;2022-08-19T11:04:19;94399.78;;;37.99;20.39
35676;BME280;21790;42.668;23.298;2022-08-19T11:06:47;94402.81;;;38.01;20.12
35676;BME280;21790;42.668;23.298;2022-08-19T11:09:23;94396.84;;;38.13;20.42
35676;BME280;21790;42.668;23.298;2022-08-19T11:11:54;94403.88;;;38.26;20.41
35676;BME280;21790;42.668;23.298;2022-08-19T11:14:22;94388.72;;;37.94;20.11
35676;BME280;21790;42.668;23.298;2022-08-19T11:16:49;94393.47;;;37.87;20.34
35676;BME280;21790;42.668;23.298;2022-08-19T11:19:16;94394.50;;;37.94;20.50
35676;BME280;21790;42.668;23.298;2022-08-19T11:21:47;94390.59;;;38.03;20.65
35676;BME280;21790;42.668;23.298;2022-08-19T11:24:19;94390.06;;;37.91;20.81
35676;BME280;21790;42.668;23.298;2022-08-19T11:26:46;94387.34;;;37.95;20.63
35676;BME280;21790;42.668;23.298;2022-08-19T11:29:15;94382.88;;;37.92;20.88
35676;BME280;21790;42.668;23.298;2022-08-19T11:31:43;94383.06;;;37.96;20.69
35676;BME280;21790;42.668;23.298;2022-08-19T11:34:12;94375.63;;;38.06;21.16
35676;BME280;21790;42.668;23.298;2022-08-19T11:36:40;94374.41;;;38.12;21.23
35676;BME280;21790;42.668;23.298;2022-08-19T11:39:08;94367.41;;;38.17;21.11
35676;BME280;21790;42.668;23.298;2022-08-19T11:41:34;94373.34;;;38.21;21.04
35676;BME280;21790;42.668;23.298;2022-08-19T11:44:00;94367.97;;;38.13;20.76
35676;BME280;21790;42.668;23.298;2022-08-19T11:46:28;94365.91;;;38.16;20.69
35676;BME280;21790;42.668;23.298;2022-08-19T11:48:56;94367.63;;;38.05;20.98
35676;BME280;21790;42.668;23.298;2022-08-19T11:51:23;94363.97;;;38.04;21.19
35676;BME280;21790;42.668;23.298;2022-08-19T11:53:50;94369.44;;;38.14;21.15
35676;BME280;21790;42.668;23.298;2022-08-19T11:56:17;94365.34;;;38.19;21.33
35676;BME280;21790;42.668;23.298;2022-08-19T11:58:44;94362.00;;;38.09;20.90
35676;BME280;21790;42.668;23.298;2022-08-19T12:01:11;94353.34;;;38.09;21.32
35676;BME280;21790;42.668;23.298;2022-08-19T12:03:38;94349.13;;;38.28;21.66
35676;BME280;21790;42.668;23.298;2022-08-19T12:06:06;94349.72;;;38.08;20.44
35676;BME280;21790;42.668;23.298;2022-08-19T12:08:32;94345.28;;;37.27;21.13
35676;BME280;21790;42.668;23.298;2022-08-19T12:10:57;94340.06;;;37.08;21.58
35676;BME280;21790;42.668;23.298;2022-08-19T12:13:23;94333.88;;;37.29;21.33
35676;BME280;21790;42.668;23.298;2022-08-19T12:15:49;94333.41;;;37.35;21.30
35676;BME280;21790;42.668;23.298;2022-08-19T12:18:15;94327.09;;;37.69;21.09
35676;BME280;21790;42.668;23.298;2022-08-19T12:20:42;94332.47;;;37.77;21.34
35676;BME280;21790;42.668;23.298;2022-08-19T12:23:09;94320.84;;;37.28;21.34
35676;BME280;21790;42.668;23.298;2022-08-19T12:25:43;94311.16;;;37.37;21.24
35676;BME280;21790;42.668;23.298;2022-08-19T12:28:13;94319.84;;;37.68;21.59
35676;BME280;21790;42.668;23.298;2022-08-19T12:30:38;94315.91;;;37.78;21.58
35676;BME280;21790;42.668;23.298;2022-08-19T12:33:04;94311.31;;;37.88;21.46
35676;BME280;21790;42.668;23.298;2022-08-19T12:35:30;94312.16;;;37.91;21.18
35676;BME280;21790;42.668;23.298;2022-08-19T12:37:55;94308.44;;;37.88;21.05
35676;BME280;21790;42.668;23.298;2022-08-19T12:40:21;94310.25;;;37.97;21.21
35676;BME280;21790;42.668;23.298;2022-08-19T12:42:46;94306.19;;;37.87;20.73
35676;BME280;21790;42.668;23.298;2022-08-19T12:45:15;94300.78;;;37.95;21.00
35676;BME280;21790;42.668;23.298;2022-08-19T12:47:40;94294.84;;;37.91;20.73
35676;BME280;21790;42.668;23.298;2022-08-19T12:50:07;94297.50;;;37.38;20.78
35676;BME280;21790;42.668;23.298;2022-08-19T12:52:35;94294.91;;;37.28;21.13
35676;BME280;21790;42.668;23.298;2022-08-19T12:55:03;94290.53;;;37.43;21.59
35676;BME280;21790;42.668;23.298;2022-08-19T12:57:29;94293.81;;;37.35;21.14
35676;BME280;21790;42.668;23.298;2022-08-19T12:59:56;94283.38;;;37.28;21.14
35676;BME280;21790;42.668;23.298;2022-08-19T13:02:22;94282.00;;;37.29;21.10
35676;BME280;21790;42.668;23.298;2022-08-19T13:04:48;94289.34;;;37.48;20.88
35676;BME280;21790;42.668;23.298;2022-08-19T13:07:13;94285.13;;;37.51;21.20
35676;BME280;21790;42.668;23.298;2022-08-19T13:09:39;94282.91;;;37.49;21.40
35676;BME280;21790;42.668;23.298;2022-08-19T13:12:07;94290.53;;;37.27;21.57
35676;BME280;21790;42.668;23.298;2022-08-19T13:14:38;94279.66;;;37.41;21.08
35676;BME280;21790;42.668;23.298;2022-08-19T13:17:05;94284.13;;;37.13;21.53
35676;BME280;21790;42.668;23.298;2022-08-19T13:19:31;94284.28;;;37.01;21.65